Terminal Aerodrome Forecast
Issued by NWS

Home | Current Version | Previous Version | Text Only | Print | Product List | Glossary On
Versions: 1 2 3 4 5 6 7 8 9 10 11 12 13 14 15 16
000
FTUS45 KABQ 062300 RRA
TAFLVS
TAF
KLVS 062340Z 0700/0724 25017G28KT P6SM SCT090 SCT120
     FM070200 23010KT P6SM FEW090 SCT120
     FM070800 04006KT P6SM FEW080 SCT120
     FM071700 21020G29KT P6SM FEW120=

USA.gov is the U.S. government's official web portal to all federal, state and local government web resources and services.